^^
Station Historical Data
Daily Summary for March 14, 2017 Units:  English    Metric   Both
« Previous Day
Next Day »
Daily Weekly Monthly Yearly Custom
  High: Low: Average:
Temperature: 29.8 °F 18.4 °F 25 °F
Dew Point: 28.7 °F 16.7 °F 23.4 °F
Humidity: 96 % 88 % 94 %
Wind Speed: 19.3 mph 0.0 mph 9.7 mph
Wind Gust: 28.8 mph - -
Wind:- - SSE
Pressure: 30.24 in 29.42 in -
Precipitation: 0.08 in    
Historical Graphs
 
 
Tabular Data for March 14, 2017
Time Temperature Dew Point Pressure Wind Wind Speed Wind Gust Humidity Rainfall Rate (Hourly) solar Conditions
00:03 25.9 °F 22.8 °F 30.24 in ENE 1.2 mph 4.0 mph 88 % 0.00 in 0.0 W/m2 RA
00:08 25.6 °F 22.5 °F 30.24 in NNE 2.4 mph 8.1 mph 88 % 0.00 in 0.0 W/m2 RA
00:13 25.6 °F 22.5 °F 30.24 in NE 0.6 mph 3.5 mph 88 % 0.00 in 0.0 W/m2 SCT
00:18 25.5 °F 22.7 °F 30.23 in Calm   1.2 mph 89 % 0.00 in 0.0 W/m2 SCT
00:23 25.5 °F 22.7 °F 30.23 in NE 1.0 mph 3.5 mph 89 % 0.00 in 0.0 W/m2 SCT
00:28 25.3 °F 22.5 °F 30.23 in Calm     89 % 0.00 in 0.0 W/m2 SCT
00:33 25.2 °F 22.4 °F 30.23 in NE 0.6 mph 3.5 mph 89 % 0.00 in 0.0 W/m2 SCT
00:38 25.0 °F 22.2 °F 30.23 in NE 0.7 mph 2.3 mph 89 % 0.00 in 0.0 W/m2 SCT
00:43 25.0 °F 22.2 °F 30.22 in NE 1.3 mph 4.0 mph 89 % 0.00 in 0.0 W/m2 SCT
00:48 25.1 °F 22.3 °F 30.21 in Calm   2.3 mph 89 % 0.00 in 0.0 W/m2 SCT
00:53 25.0 °F 22.2 °F 30.21 in NNE 0.2 mph 1.2 mph 89 % 0.00 in 0.0 W/m2 SCT
00:58 25.0 °F 22.2 °F 30.20 in NE 1.7 mph 3.5 mph 89 % 0.00 in 0.0 W/m2 SCT
01:03 25.0 °F 22.2 °F 30.19 in NE 3.3 mph 6.9 mph 89 % 0.00 in 0.0 W/m2 SCT
01:08 25.0 °F 22.5 °F 30.19 in NNE 1.1 mph 5.0 mph 90 % 0.00 in 0.0 W/m2 SCT
01:13 25.1 °F 22.6 °F 30.18 in NE 1.0 mph 4.6 mph 90 % 0.00 in 0.0 W/m2 SCT
01:18 25.0 °F 22.5 °F 30.18 in NE 1.5 mph 3.5 mph 90 % 0.00 in 0.0 W/m2 SCT
01:23 25.1 °F 22.6 °F 30.18 in NE 1.2 mph 3.5 mph 90 % 0.00 in 0.0 W/m2 SCT
01:28 25.2 °F 22.7 °F 30.18 in NNE 0.2 mph 2.0 mph 90 % 0.00 in 0.0 W/m2 SCT
01:33 25.3 °F 22.8 °F 30.17 in NNE 0.6 mph 1.2 mph 90 % 0.00 in 0.0 W/m2 SCT
01:38 25.3 °F 22.8 °F 30.17 in NE 2.7 mph 5.8 mph 90 % 0.00 in 0.0 W/m2 SCT
01:43 25.4 °F 22.9 °F 30.17 in NE 3.2 mph 4.6 mph 90 % 0.00 in 0.0 W/m2 SCT
01:48 25.4 °F 22.9 °F 30.16 in NNE 4.4 mph 5.0 mph 90 % 0.00 in 0.0 W/m2 SCT
01:53 25.3 °F 22.8 °F 30.15 in NE 6.1 mph 8.0 mph 90 % 0.00 in 0.0 W/m2 SCT
01:58 25.3 °F 22.8 °F 30.14 in NNE 4.0 mph 5.8 mph 90 % 0.00 in 0.0 W/m2 SCT
02:03 25.4 °F 23.1 °F 30.14 in NE 5.6 mph 7.0 mph 91 % 0.00 in 0.0 W/m2 SCT
02:08 25.4 °F 23.1 °F 30.13 in NNE 4.5 mph 4.6 mph 91 % 0.00 in 0.0 W/m2 SCT
02:13 25.5 °F 23.2 °F 30.13 in NNE 4.6 mph 4.6 mph 91 % 0.00 in 0.0 W/m2 SCT
02:14 25.5 °F 23.2 °F 30.13 in North 4.6 mph 8.0 mph 91 % 0.00 in 0.0 W/m2 SCT
02:19 25.5 °F 23.2 °F 30.13 in NNE 5.2 mph 6.9 mph 91 % 0.00 in 0.0 W/m2 SCT
02:24 25.6 °F 23.3 °F 30.13 in NNE 5.1 mph 6.9 mph 91 % 0.00 in 0.0 W/m2 SCT
02:29 25.6 °F 23.3 °F 30.12 in NNE 7.3 mph 11.5 mph 91 % 0.00 in 0.0 W/m2 SCT
02:34 25.6 °F 23.3 °F 30.12 in NNE 5.0 mph 6.9 mph 91 % 0.00 in 0.0 W/m2 SCT
02:39 25.6 °F 23.3 °F 30.11 in NNE 4.9 mph 10.0 mph 91 % 0.00 in 0.0 W/m2 SCT
02:44 25.5 °F 23.2 °F 30.11 in NE 8.6 mph 11.0 mph 91 % 0.00 in 0.0 W/m2 SCT
02:49 25.5 °F 23.2 °F 30.10 in NE 6.8 mph 11.5 mph 91 % 0.00 in 0.0 W/m2 SCT
02:54 25.4 °F 23.1 °F 30.10 in NE 8.9 mph 12.7 mph 91 % 0.00 in 0.0 W/m2 SCT
02:59 25.4 °F 23.1 °F 30.10 in NNE 5.7 mph 8.1 mph 91 % 0.00 in 0.0 W/m2 SCT
03:04 25.4 °F 23.4 °F 30.09 in NNE 7.2 mph 11.5 mph 92 % 0.00 in 0.0 W/m2 SCT
03:09 25.4 °F 23.4 °F 30.08 in NE 7.0 mph 9.2 mph 92 % 0.00 in 0.0 W/m2 SCT
03:14 25.4 °F 23.4 °F 30.08 in NNE 8.2 mph 11.5 mph 92 % 0.00 in 0.0 W/m2 SCT
03:19 25.4 °F 23.4 °F 30.06 in NNE 9.7 mph 13.8 mph 92 % 0.00 in 0.0 W/m2 SCT
03:24 25.4 °F 23.4 °F 30.05 in NNE 6.8 mph 11.5 mph 92 % 0.00 in 0.0 W/m2 SCT
03:29 25.4 °F 23.4 °F 30.05 in NE 8.9 mph 15.0 mph 92 % 0.00 in 0.0 W/m2 SCT
03:34 25.4 °F 23.4 °F 30.04 in NNE 9.4 mph 15.0 mph 92 % 0.00 in 0.0 W/m2 SCT
03:39 25.5 °F 23.5 °F 30.03 in NNE 12.0 mph 16.1 mph 92 % 0.00 in 0.0 W/m2 SCT
03:44 25.5 °F 23.5 °F 30.02 in NE 12.5 mph 19.6 mph 92 % 0.00 in 0.0 W/m2 SCT
03:49 25.5 °F 23.5 °F 30.02 in NNE 10.9 mph 12.7 mph 92 % 0.00 in 0.0 W/m2 SCT
03:54 25.6 °F 23.9 °F 30.01 in NE 14.8 mph 19.6 mph 93 % 0.00 in 0.0 W/m2 SCT
03:55 25.5 °F 23.8 °F 30.01 in NNE 12.5 mph 16.1 mph 93 % 0.00 in 0.0 W/m2 SCT
04:00 25.5 °F 23.8 °F 30.01 in NE 9.3 mph 11.5 mph 93 % 0.00 in 0.0 W/m2 SCT
04:05 25.5 °F 23.8 °F 30.00 in NNE 8.5 mph 11.5 mph 93 % 0.00 in 0.0 W/m2 SCT
04:10 25.5 °F 23.5 °F 30.00 in NNE 11.8 mph 15.0 mph 92 % 0.00 in 0.0 W/m2 SCT
04:15 25.5 °F 23.8 °F 30.01 in NNE 10.6 mph 13.0 mph 93 % 0.00 in 0.0 W/m2 SCT
04:20 25.4 °F 23.7 °F 30.01 in NNE 9.5 mph 13.8 mph 93 % 0.00 in 0.0 W/m2 SCT
04:25 25.4 °F 23.7 °F 30.00 in NNE 11.2 mph 12.7 mph 93 % 0.00 in 0.0 W/m2 SCT
04:30 25.4 °F 23.7 °F 29.99 in NE 8.4 mph 11.5 mph 93 % 0.00 in 0.0 W/m2 SCT
04:35 25.3 °F 23.6 °F 29.99 in NNE 10.9 mph 13.8 mph 93 % 0.00 in 0.0 W/m2 SCT
04:40 25.3 °F 23.6 °F 29.98 in NE 11.5 mph 14.0 mph 93 % 0.00 in 0.0 W/m2 SCT
04:45 25.2 °F 23.5 °F 29.98 in NE 10.4 mph 15.0 mph 93 % 0.00 in 0.0 W/m2 SCT
04:50 25.2 °F 23.5 °F 29.97 in NNE 9.0 mph 10.4 mph 93 % 0.00 in 0.0 W/m2 SCT
04:55 25.2 °F 23.5 °F 29.97 in NNE 9.9 mph 13.8 mph 93 % 0.00 in 0.0 W/m2 SCT
05:00 25.2 °F 23.5 °F 29.95 in NE 10.1 mph 13.8 mph 93 % 0.00 in 0.0 W/m2 SCT
05:05 25.1 °F 23.4 °F 29.95 in NNE 8.4 mph 11.5 mph 93 % 0.00 in 0.0 W/m2 SCT
05:10 25.1 °F 23.4 °F 29.94 in NE 11.3 mph 14.0 mph 93 % 0.00 in 0.0 W/m2 SCT
05:15 25.1 °F 23.4 °F 29.93 in NNE 10.5 mph 12.7 mph 93 % 0.00 in 0.0 W/m2 SCT
05:20 25.1 °F 23.4 °F 29.92 in NE 8.1 mph 14.0 mph 93 % 0.00 in 0.0 W/m2 SCT
05:25 25.1 °F 23.4 °F 29.92 in NE 13.2 mph 19.6 mph 93 % 0.00 in 0.0 W/m2 SCT
05:30 25.1 °F 23.4 °F 29.92 in NE 13.9 mph 15.0 mph 93 % 0.00 in 0.0 W/m2 SCT
05:35 25.1 °F 23.4 °F 29.92 in NE 11.4 mph 15.0 mph 93 % 0.00 in 0.0 W/m2 SCT
05:40 25.1 °F 23.4 °F 29.92 in NNE 6.2 mph 10.4 mph 93 % 0.00 in 0.0 W/m2 SCT
05:45 25.1 °F 23.4 °F 29.91 in NE 5.5 mph 9.2 mph 93 % 0.00 in 0.0 W/m2 SCT
05:50 25.1 °F 23.4 °F 29.90 in NNE 5.7 mph 9.2 mph 93 % 0.00 in 0.0 W/m2 SCT
05:55 25.1 °F 23.4 °F 29.89 in NNE 6.5 mph 11.5 mph 93 % 0.00 in 0.0 W/m2 SCT
06:00 25.1 °F 23.4 °F 29.88 in NNE 7.4 mph 11.5 mph 93 % 0.00 in 0.0 W/m2 SCT
06:05 25.1 °F 23.4 °F 29.88 in NNE 9.8 mph 11.5 mph 93 % 0.00 in 0.0 W/m2 SCT
06:10 25.0 °F 23.3 °F 29.87 in NNE 3.7 mph 10.4 mph 93 % 0.00 in 0.0 W/m2 SCT
06:15 25.0 °F 23.3 °F 29.87 in NNE 7.7 mph 12.7 mph 93 % 0.00 in 0.0 W/m2 SCT
06:20 25.1 °F 23.4 °F 29.86 in NE 8.7 mph 11.5 mph 93 % 0.00 in 0.0 W/m2 SCT
06:25 25.2 °F 23.7 °F 29.85 in NNE 7.1 mph 11.5 mph 94 % 0.00 in 0.0 W/m2 SCT
06:30 25.2 °F 23.7 °F 29.85 in NNE 8.4 mph 11.5 mph 94 % 0.00 in 0.0 W/m2 SCT
06:35 25.2 °F 23.7 °F 29.85 in NNE 14.5 mph 19.6 mph 94 % 0.00 in 0.0 W/m2 SCT
06:40 25.3 °F 23.8 °F 29.85 in NE 8.8 mph 11.5 mph 94 % 0.00 in 0.0 W/m2 SCT
06:45 25.4 °F 23.9 °F 29.85 in NE 6.3 mph 11.5 mph 94 % 0.00 in 0.0 W/m2 SCT
06:50 25.4 °F 23.9 °F 29.84 in NE 8.5 mph 17.3 mph 94 % 0.00 in 0.0 W/m2 SCT
06:55 25.3 °F 23.8 °F 29.83 in NNE 7.8 mph 11.5 mph 94 % 0.00 in 0.0 W/m2 SCT
07:00 25.3 °F 23.8 °F 29.83 in NNE 11.0 mph 17.3 mph 94 % 0.00 in 0.0 W/m2 SCT
07:05 25.3 °F 23.8 °F 29.83 in NNE 7.4 mph 11.5 mph 94 % 0.00 in 0.0 W/m2 SCT
07:10 25.2 °F 23.7 °F 29.81 in NNE 7.8 mph 13.8 mph 94 % 0.00 in 0.0 W/m2 SCT
07:15 25.0 °F 23.5 °F 29.81 in NNE 7.5 mph 11.5 mph 94 % 0.00 in 0.0 W/m2 SCT
07:20 24.8 °F 23.1 °F 29.81 in NNE 12.0 mph 15.0 mph 93 % 0.00 in 0.0 W/m2 SCT
07:25 24.6 °F 22.9 °F 29.80 in NNE 14.0 mph 16.1 mph 93 % 0.00 in 0.0 W/m2 SCT
07:30 24.6 °F 23.1 °F 29.80 in NNE 13.6 mph 16.1 mph 94 % 0.00 in 0.0 W/m2 SCT
07:35 24.5 °F 23.0 °F 29.79 in NE 9.9 mph 16.1 mph 94 % 0.00 in 0.0 W/m2 SCT
07:40 24.5 °F 23.0 °F 29.78 in North 12.1 mph 17.3 mph 94 % 0.00 in 0.0 W/m2 SCT
07:45 24.5 °F 22.8 °F 29.77 in NNE 9.9 mph 18.4 mph 93 % 0.00 in 5.0 W/m2 SCT
07:50 24.5 °F 23.0 °F 29.77 in NNE 15.4 mph 19.6 mph 94 % 0.00 in 7.0 W/m2 SCT
07:55 24.5 °F 23.0 °F 29.77 in NE 11.8 mph 17.3 mph 94 % 0.00 in 7.0 W/m2 SCT
08:00 24.6 °F 23.1 °F 29.76 in NNE 13.0 mph 16.1 mph 94 % 0.00 in 9.0 W/m2 OVC
08:05 24.7 °F 23.2 °F 29.76 in NNE 10.6 mph 19.6 mph 94 % 0.00 in 11.0 W/m2 OVC
08:10 24.7 °F 23.2 °F 29.75 in NNE 13.3 mph 18.4 mph 94 % 0.00 in 12.0 W/m2 OVC
08:15 24.8 °F 23.3 °F 29.75 in NE 13.0 mph 19.6 mph 94 % 0.00 in 14.0 W/m2 OVC
08:20 24.8 °F 23.3 °F 29.73 in NNE 14.3 mph 18.4 mph 94 % 0.00 in 14.0 W/m2 OVC
08:25 24.9 °F 23.4 °F 29.73 in NNE 14.6 mph 16.1 mph 94 % 0.00 in 14.0 W/m2 OVC
08:30 24.9 °F 23.4 °F 29.72 in NNE 10.7 mph 16.1 mph 94 % 0.00 in 14.0 W/m2 OVC
08:36 24.9 °F 23.4 °F 29.71 in NNE 11.1 mph 17.3 mph 94 % 0.00 in 14.0 W/m2 OVC
08:41 24.9 °F 23.4 °F 29.69 in NNE 10.9 mph 17.3 mph 94 % 0.00 in 14.0 W/m2 OVC
08:46 25.0 °F 23.5 °F 29.69 in NE 16.9 mph 23.0 mph 94 % 0.00 in 12.0 W/m2 OVC
08:51 25.0 °F 23.5 °F 29.69 in NE 14.2 mph 17.3 mph 94 % 0.00 in 11.0 W/m2 OVC
08:56 25.0 °F 23.5 °F 29.68 in NE 15.4 mph 23.0 mph 94 % 0.00 in 11.0 W/m2 OVC
09:01 25.0 °F 23.5 °F 29.67 in NE 15.7 mph 24.2 mph 94 % 0.00 in 7.0 W/m2 OVC
09:06 25.1 °F 23.6 °F 29.67 in NNE 10.7 mph 13.8 mph 94 % 0.00 in 7.0 W/m2 OVC
09:11 25.1 °F 23.6 °F 29.67 in NE 13.5 mph 19.6 mph 94 % 0.00 in 7.0 W/m2 OVC
09:16 25.1 °F 23.6 °F 29.67 in NE 10.9 mph 12.7 mph 94 % 0.00 in 7.0 W/m2 OVC
09:21 25.2 °F 23.7 °F 29.66 in NNE 14.4 mph 17.3 mph 94 % 0.00 in 7.0 W/m2 OVC
09:26 25.2 °F 23.7 °F 29.66 in NNE 11.4 mph 15.0 mph 94 % 0.00 in 7.0 W/m2 OVC
09:31 25.2 °F 23.7 °F 29.66 in NNE 15.5 mph 20.7 mph 94 % 0.00 in 7.0 W/m2 OVC
09:36 25.2 °F 23.7 °F 29.65 in NE 7.1 mph 14.0 mph 94 % 0.00 in 7.0 W/m2 OVC
09:41 25.3 °F 23.8 °F 29.64 in NNE 10.4 mph 19.6 mph 94 % 0.00 in 9.0 W/m2 OVC
09:46 25.3 °F 23.8 °F 29.63 in NNE 10.8 mph 14.0 mph 94 % 0.00 in 9.0 W/m2 OVC
09:51 25.4 °F 23.9 °F 29.61 in NNE 17.0 mph 23.0 mph 94 % 0.00 in 11.0 W/m2 OVC
09:56 25.4 °F 23.9 °F 29.61 in NNE 12.6 mph 16.1 mph 94 % 0.00 in 11.0 W/m2 OVC
10:01 25.5 °F 24.0 °F 29.60 in North 11.9 mph 23.0 mph 94 % 0.00 in 12.0 W/m2 OVC
10:06 25.5 °F 24.0 °F 29.59 in NNE 10.8 mph 15.0 mph 94 % 0.00 in 12.0 W/m2 OVC
10:11 25.6 °F 24.1 °F 29.59 in NNE 10.5 mph 15.0 mph 94 % 0.00 in 12.0 W/m2 OVC
10:16 25.6 °F 24.1 °F 29.59 in NNE 11.8 mph 20.7 mph 94 % 0.00 in 14.0 W/m2 OVC
10:21 25.7 °F 24.2 °F 29.59 in NNE 8.4 mph 11.5 mph 94 % 0.00 in 18.0 W/m2 OVC
10:26 25.7 °F 24.2 °F 29.59 in North 10.1 mph 12.7 mph 94 % 0.00 in 21.0 W/m2 OVC
10:31 25.7 °F 24.2 °F 29.59 in NNE 4.8 mph 10.4 mph 94 % 0.00 in 28.0 W/m2 OVC
10:36 25.7 °F 24.2 °F 29.59 in NNE 6.2 mph 9.2 mph 94 % 0.00 in 32.0 W/m2 OVC
10:41 25.7 °F 24.2 °F 29.59 in NNE 7.3 mph 11.5 mph 94 % 0.00 in 42.0 W/m2 OVC
10:46 25.7 °F 24.2 °F 29.58 in North 3.4 mph 9.2 mph 94 % 0.00 in 53.0 W/m2 OVC
10:51 25.8 °F 24.3 °F 29.58 in North 3.0 mph 5.8 mph 94 % 0.00 in 58.0 W/m2 OVC
10:56 25.8 °F 24.3 °F 29.57 in NNE 9.2 mph 11.0 mph 94 % 0.00 in 70.0 W/m2 OVC
11:01 25.9 °F 24.4 °F 29.56 in NNE 12.7 mph 19.6 mph 94 % 0.00 in 97.0 W/m2 OVC
11:06 25.9 °F 24.4 °F 29.55 in NW 10.7 mph 14.0 mph 94 % 0.00 in 116.0 W/m2 OVC
11:11 26.0 °F 24.5 °F 29.54 in NNE 10.3 mph 16.1 mph 94 % 0.00 in 155.0 W/m2 OVC
11:16 26.0 °F 24.5 °F 29.54 in North 9.6 mph 12.7 mph 94 % 0.00 in 185.0 W/m2 BKN
11:21 26.0 °F 24.5 °F 29.54 in NNE 12.3 mph 15.0 mph 94 % 0.00 in 216.0 W/m2 BKN
11:26 26.1 °F 24.6 °F 29.54 in NNE 9.5 mph 11.5 mph 94 % 0.00 in 241.0 W/m2 BKN
11:31 26.1 °F 24.6 °F 29.54 in NNE 5.7 mph 11.5 mph 94 % 0.00 in 251.0 W/m2 BKN
11:36 26.2 °F 24.7 °F 29.54 in NNE 5.6 mph 12.7 mph 94 % 0.00 in 251.0 W/m2 BKN
11:42 26.3 °F 24.8 °F 29.53 in North 9.9 mph 15.0 mph 94 % 0.00 in 250.0 W/m2 BKN
11:46 26.3 °F 24.8 °F 29.53 in NNE 7.2 mph 13.8 mph 94 % 0.00 in 267.0 W/m2 BKN
11:52 26.4 °F 24.9 °F 29.51 in NNE 5.7 mph 12.7 mph 94 % 0.00 in 301.0 W/m2 BKN
11:57 26.4 °F 24.9 °F 29.50 in North 4.5 mph 9.2 mph 94 % 0.00 in 283.0 W/m2 BKN
12:02 26.5 °F 25.0 °F 29.49 in NNW 9.6 mph 13.8 mph 94 % 0.00 in 269.0 W/m2 BKN
12:07 26.6 °F 25.1 °F 29.48 in NNE 9.7 mph 15.0 mph 94 % 0.00 in 260.0 W/m2 BKN
12:12 26.7 °F 25.2 °F 29.47 in NE 8.2 mph 15.0 mph 94 % 0.00 in 265.0 W/m2 BKN
12:17 26.8 °F 25.3 °F 29.48 in NNE 8.0 mph 16.1 mph 94 % 0.00 in 248.0 W/m2 BKN
12:22 26.9 °F 25.4 °F 29.48 in North 12.4 mph 14.0 mph 94 % 0.00 in 246.0 W/m2 BKN
12:27 26.9 °F 25.7 °F 29.48 in NNE 13.8 mph 21.0 mph 95 % 0.00 in 237.0 W/m2 BKN
12:32 27.0 °F 25.8 °F 29.48 in NNE 10.2 mph 15.0 mph 95 % 0.00 in 234.0 W/m2 BKN
12:37 27.0 °F 25.8 °F 29.47 in NNE 6.5 mph 12.7 mph 95 % 0.00 in 274.0 W/m2 BKN
12:42 27.1 °F 25.9 °F 29.46 in NNE 7.3 mph 11.5 mph 95 % 0.00 in 297.0 W/m2 BKN
12:47 27.3 °F 26.1 °F 29.47 in NNE 10.2 mph 20.7 mph 95 % 0.00 in 292.0 W/m2 BKN
12:52 27.4 °F 26.2 °F 29.45 in North 5.1 mph 9.2 mph 95 % 0.00 in 311.0 W/m2 BKN
12:57 27.6 °F 26.4 °F 29.45 in NNE 6.4 mph 13.8 mph 95 % 0.00 in 383.0 W/m2 SCT
13:02 27.7 °F 26.5 °F 29.46 in NNW 6.2 mph 9.2 mph 95 % 0.00 in 422.0 W/m2 SCT
13:07 27.8 °F 26.6 °F 29.46 in NNW 6.4 mph 11.5 mph 95 % 0.00 in 369.0 W/m2 SCT
13:12 28.1 °F 26.9 °F 29.44 in North 6.0 mph 11.5 mph 95 % 0.00 in 394.0 W/m2 SCT
13:17 28.2 °F 27.0 °F 29.44 in North 12.7 mph 19.6 mph 95 % 0.00 in 357.0 W/m2 SCT
13:22 28.4 °F 27.2 °F 29.44 in North 9.5 mph 16.1 mph 95 % 0.00 in 336.0 W/m2 SCT
13:27 28.6 °F 27.4 °F 29.44 in NNW 10.3 mph 19.6 mph 95 % 0.00 in 283.0 W/m2 BKN
13:32 28.8 °F 27.5 °F 29.44 in North 10.2 mph 15.0 mph 95 % 0.00 in 327.0 W/m2 BKN
13:37 29.0 °F 27.7 °F 29.44 in NNW 7.6 mph 11.5 mph 95 % 0.00 in 367.0 W/m2 SCT
13:42 29.1 °F 27.8 °F 29.43 in North 4.5 mph 10.4 mph 95 % 0.01 in 359.0 W/m2 RA
13:47 29.2 °F 27.9 °F 29.43 in NNW 6.9 mph 11.5 mph 95 % 0.01 in 346.0 W/m2 RA
13:52 29.3 °F 28.0 °F 29.43 in WNW 6.3 mph 11.5 mph 95 % 0.01 in 316.0 W/m2 SCT
13:57 29.4 °F 28.1 °F 29.43 in NW 9.0 mph 15.0 mph 95 % 0.01 in 318.0 W/m2 BKN
14:02 29.5 °F 28.2 °F 29.43 in NW 10.6 mph 15.0 mph 95 % 0.01 in 350.0 W/m2 SCT
14:07 29.6 °F 28.3 °F 29.42 in NW 8.6 mph 13.8 mph 95 % 0.01 in 352.0 W/m2 SCT
14:12 29.7 °F 28.4 °F 29.42 in WNW 12.2 mph 16.1 mph 95 % 0.02 in 359.0 W/m2 RA
14:17 29.7 °F 28.4 °F 29.42 in NNW 10.7 mph 15.0 mph 95 % 0.02 in 362.0 W/m2 RA
14:22 29.7 °F 28.4 °F 29.42 in NW 15.0 mph 23.0 mph 95 % 0.02 in 339.0 W/m2 SCT
14:27 29.8 °F 28.5 °F 29.42 in NW 10.9 mph 16.1 mph 95 % 0.02 in 355.0 W/m2 SCT
14:32 29.8 °F 28.5 °F 29.42 in NW 16.1 mph 20.7 mph 95 % 0.02 in 383.0 W/m2 SCT
14:37 29.8 °F 28.5 °F 29.42 in NW 11.4 mph 19.0 mph 95 % 0.02 in 378.0 W/m2 SCT
14:42 29.8 °F 28.5 °F 29.42 in WNW 9.3 mph 13.8 mph 95 % 0.02 in 373.0 W/m2 RA
14:47 29.7 °F 28.4 °F 29.43 in NW 12.9 mph 15.0 mph 95 % 0.02 in 318.0 W/m2 RA
14:52 29.7 °F 28.4 °F 29.44 in NW 9.9 mph 15.0 mph 95 % 0.02 in 243.0 W/m2 BKN
14:57 29.7 °F 28.4 °F 29.44 in NW 8.5 mph 15.0 mph 95 % 0.02 in 290.0 W/m2 BKN
15:03 29.7 °F 28.7 °F 29.43 in North 14.0 mph 23.0 mph 96 % 0.02 in 323.0 W/m2 SCT
15:08 29.6 °F 28.6 °F 29.43 in WNW 15.6 mph 25.3 mph 96 % 0.02 in 311.0 W/m2 SCT
15:13 29.5 °F 28.2 °F 29.44 in NW 15.0 mph 24.2 mph 95 % 0.01 in 290.0 W/m2 SCT
15:18 29.4 °F 28.4 °F 29.44 in NNW 18.0 mph 26.5 mph 96 % 0.02 in 279.0 W/m2 RA
15:23 29.2 °F 28.2 °F 29.44 in North 13.7 mph 21.9 mph 96 % 0.02 in 294.0 W/m2 RA
15:28 29.0 °F 28.0 °F 29.44 in NW 15.3 mph 23.0 mph 96 % 0.02 in 281.0 W/m2 SCT
15:33 28.9 °F 27.9 °F 29.44 in NNW 15.3 mph 20.7 mph 96 % 0.02 in 309.0 W/m2 SCT
15:38 28.6 °F 27.6 °F 29.44 in NW 14.7 mph 20.7 mph 96 % 0.02 in 306.0 W/m2 RA
15:43 28.5 °F 27.5 °F 29.44 in NW 11.5 mph 20.0 mph 96 % 0.02 in 288.0 W/m2 RA
15:48 28.3 °F 27.3 °F 29.44 in NW 12.7 mph 19.6 mph 96 % 0.02 in 264.0 W/m2 SCT
15:53 28.2 °F 27.2 °F 29.45 in NW 10.1 mph 15.0 mph 96 % 0.02 in 214.0 W/m2 BKN
15:54 28.1 °F 27.1 °F 29.45 in NNW 12.9 mph 16.1 mph 96 % 0.02 in 200.0 W/m2 BKN
15:59 27.9 °F 26.9 °F 29.44 in NW 13.6 mph 19.6 mph 96 % 0.03 in 149.0 W/m2 RA
16:04 27.8 °F 26.8 °F 29.44 in NNW 13.6 mph 18.4 mph 96 % 0.03 in 146.0 W/m2 RA
16:09 27.6 °F 26.6 °F 29.44 in NNW 9.1 mph 12.7 mph 96 % 0.03 in 176.0 W/m2 BKN
16:14 27.4 °F 26.4 °F 29.43 in NNW 16.4 mph 24.2 mph 96 % 0.02 in 207.0 W/m2 BKN
16:19 27.3 °F 26.3 °F 29.43 in NW 13.0 mph 23.0 mph 96 % 0.02 in 236.0 W/m2 SCT
16:24 27.2 °F 26.2 °F 29.43 in NW 13.2 mph 20.7 mph 96 % 0.02 in 285.0 W/m2 SCT
16:29 27.0 °F 26.0 °F 29.44 in NW 16.1 mph 20.7 mph 96 % 0.02 in 327.0 W/m2 FEW
16:34 27.0 °F 26.0 °F 29.44 in WNW 13.9 mph 21.9 mph 96 % 0.01 in 299.0 W/m2 FEW
16:35 26.9 °F 25.9 °F 29.44 in WNW 10.3 mph 13.8 mph 96 % 0.02 in 295.0 W/m2 RA
16:40 26.9 °F 25.9 °F 29.45 in NW 13.3 mph 20.7 mph 96 % 0.02 in 234.0 W/m2 RA
16:45 26.9 °F 25.9 °F 29.46 in NNE 12.2 mph 19.6 mph 96 % 0.02 in 186.0 W/m2 SCT
16:50 26.8 °F 25.6 °F 29.47 in WNW 16.0 mph 26.5 mph 95 % 0.02 in 167.0 W/m2 BKN
16:55 26.7 °F 25.5 °F 29.47 in NNW 7.5 mph 18.4 mph 95 % 0.02 in 162.0 W/m2 SCT
17:00 26.6 °F 25.4 °F 29.47 in WNW 12.7 mph 19.6 mph 95 % 0.01 in 135.0 W/m2 BKN
17:05 26.5 °F 25.5 °F 29.48 in NW 9.3 mph 16.1 mph 96 % 0.01 in 121.0 W/m2 BKN
17:10 26.5 °F 25.3 °F 29.47 in NW 16.1 mph 23.0 mph 95 % 0.01 in 86.0 W/m2 BKN
17:15 26.4 °F 25.2 °F 29.47 in NW 13.8 mph 20.7 mph 95 % 0.02 in 88.0 W/m2 RA
17:20 26.3 °F 25.1 °F 29.47 in NW 15.8 mph 26.5 mph 95 % 0.02 in 114.0 W/m2 RA
17:25 26.1 °F 24.9 °F 29.47 in WNW 10.5 mph 16.1 mph 95 % 0.02 in 141.0 W/m2 SCT
17:30 26.1 °F 24.9 °F 29.48 in NW 11.3 mph 17.0 mph 95 % 0.02 in 158.0 W/m2 SCT
17:35 26.0 °F 24.8 °F 29.48 in NW 15.3 mph 20.7 mph 95 % 0.01 in 130.0 W/m2 SCT
17:40 26.0 °F 24.8 °F 29.49 in NW 10.9 mph 19.6 mph 95 % 0.01 in 120.0 W/m2 SCT
17:45 25.9 °F 24.7 °F 29.49 in WNW 16.6 mph 20.7 mph 95 % 0.01 in 109.0 W/m2 SCT
17:50 25.9 °F 24.7 °F 29.50 in WSW 11.0 mph 19.6 mph 95 % 0.01 in 74.0 W/m2 BKN
17:55 25.8 °F 24.6 °F 29.50 in WNW 5.5 mph 13.8 mph 95 % 0.01 in 62.0 W/m2 BKN
18:00 25.7 °F 24.5 °F 29.51 in WNW 8.2 mph 16.1 mph 95 % 0.01 in 49.0 W/m2 BKN
18:05 25.7 °F 24.5 °F 29.52 in WNW 10.2 mph 11.5 mph 95 % 0.01 in 39.0 W/m2 BKN
18:10 25.7 °F 24.5 °F 29.52 in WNW 10.2 mph 16.1 mph 95 % 0.01 in 40.0 W/m2 BKN
18:15 25.7 °F 24.5 °F 29.52 in NW 13.0 mph 23.0 mph 95 % 0.00 in 35.0 W/m2 BKN
18:20 25.6 °F 24.4 °F 29.52 in NW 11.5 mph 17.3 mph 95 % 0.00 in 33.0 W/m2 BKN
18:25 25.6 °F 24.4 °F 29.52 in WNW 13.8 mph 21.0 mph 95 % 0.00 in 30.0 W/m2 BKN
18:30 25.5 °F 24.3 °F 29.52 in NNW 11.2 mph 21.9 mph 95 % 0.00 in 28.0 W/m2 BKN
18:35 25.4 °F 24.2 °F 29.53 in West 15.1 mph 19.6 mph 95 % 0.00 in 18.0 W/m2 BKN
18:40 25.3 °F 24.1 °F 29.53 in WNW 6.1 mph 11.5 mph 95 % 0.00 in 12.0 W/m2 OVC
18:45 25.2 °F 24.0 °F 29.54 in WSW 9.9 mph 13.8 mph 95 % 0.00 in 12.0 W/m2 BKN
18:50 25.2 °F 24.0 °F 29.54 in West 8.9 mph 16.1 mph 95 % 0.00 in 12.0 W/m2 BKN
18:55 25.1 °F 23.9 °F 29.54 in WNW 14.3 mph 19.6 mph 95 % 0.00 in 11.0 W/m2 BKN
19:00 25.0 °F 23.8 °F 29.54 in West 15.6 mph 19.6 mph 95 % 0.00 in 7.0 W/m2 SCT
19:05 24.9 °F 23.7 °F 29.55 in West 12.8 mph 18.4 mph 95 % 0.00 in 0.0 W/m2 SCT
19:09 24.9 °F 23.7 °F 29.54 in West 10.1 mph 18.0 mph 95 % 0.00 in 0.0 W/m2 SCT
19:14 24.7 °F 23.5 °F 29.56 in NW 9.3 mph 17.3 mph 95 % 0.00 in 0.0 W/m2 SCT
19:19 24.6 °F 23.4 °F 29.56 in West 14.1 mph 19.6 mph 95 % 0.00 in 0.0 W/m2 SCT
19:24 24.3 °F 23.1 °F 29.56 in WNW 12.0 mph 26.5 mph 95 % 0.00 in 0.0 W/m2 SCT
19:29 24.1 °F 22.9 °F 29.58 in WNW 13.6 mph 19.6 mph 95 % 0.00 in 0.0 W/m2 SCT
19:34 23.9 °F 22.7 °F 29.58 in West 12.1 mph 21.0 mph 95 % 0.00 in 0.0 W/m2 SCT
19:39 23.6 °F 22.4 °F 29.59 in WNW 13.8 mph 23.0 mph 95 % 0.00 in 0.0 W/m2 SCT
19:44 23.3 °F 22.1 °F 29.59 in NW 14.3 mph 20.7 mph 95 % 0.00 in 0.0 W/m2 SCT
19:49 23.2 °F 22.0 °F 29.59 in WNW 14.9 mph 19.6 mph 95 % 0.00 in 0.0 W/m2 SCT
19:54 23.0 °F 21.8 °F 29.59 in West 13.9 mph 19.6 mph 95 % 0.00 in 0.0 W/m2 SCT
19:59 22.8 °F 21.6 °F 29.60 in NW 9.2 mph 15.0 mph 95 % 0.00 in 0.0 W/m2 SCT
20:04 22.7 °F 21.5 °F 29.59 in West 11.6 mph 19.6 mph 95 % 0.00 in 0.0 W/m2 SCT
20:09 22.6 °F 21.4 °F 29.60 in WNW 5.3 mph 12.7 mph 95 % 0.00 in 0.0 W/m2 SCT
20:14 22.4 °F 21.2 °F 29.60 in West 12.6 mph 17.3 mph 95 % 0.00 in 0.0 W/m2 SCT
20:19 22.2 °F 20.7 °F 29.60 in WSW 6.5 mph 14.0 mph 94 % 0.00 in 0.0 W/m2 SCT
20:24 22.0 °F 20.5 °F 29.61 in WNW 15.2 mph 28.8 mph 94 % 0.00 in 0.0 W/m2 SCT
20:29 21.8 °F 20.3 °F 29.61 in NW 12.3 mph 18.0 mph 94 % 0.00 in 0.0 W/m2 SCT
20:34 21.6 °F 20.1 °F 29.62 in WNW 8.7 mph 17.0 mph 94 % 0.00 in 0.0 W/m2 SCT
20:39 21.4 °F 19.9 °F 29.62 in West 9.1 mph 18.4 mph 94 % 0.00 in 0.0 W/m2 SCT
20:44 21.2 °F 19.7 °F 29.62 in NW 8.0 mph 13.8 mph 94 % 0.00 in 0.0 W/m2 SCT
20:49 21.1 °F 19.6 °F 29.62 in WSW 11.4 mph 16.1 mph 94 % 0.00 in 0.0 W/m2 SCT
20:54 21.0 °F 19.5 °F 29.62 in WNW 14.6 mph 23.0 mph 94 % 0.00 in 0.0 W/m2 SCT
20:59 20.9 °F 19.4 °F 29.63 in West 8.9 mph 19.6 mph 94 % 0.00 in 0.0 W/m2 SCT
21:04 20.7 °F 19.2 °F 29.62 in West 19.3 mph 26.5 mph 94 % 0.00 in 0.0 W/m2 SCT
21:09 20.5 °F 19.0 °F 29.63 in NW 9.6 mph 17.3 mph 94 % 0.00 in 0.0 W/m2 SCT
21:14 20.4 °F 18.9 °F 29.63 in NW 10.0 mph 16.1 mph 94 % 0.00 in 0.0 W/m2 SCT
21:19 20.3 °F 18.8 °F 29.63 in NW 13.3 mph 19.6 mph 94 % 0.00 in 0.0 W/m2 SCT
21:24 20.2 °F 18.8 °F 29.63 in WNW 11.5 mph 17.3 mph 94 % 0.00 in 0.0 W/m2 SCT
21:29 20.1 °F 18.7 °F 29.63 in West 10.8 mph 15.0 mph 94 % 0.00 in 0.0 W/m2 SCT
21:34 20.0 °F 18.6 °F 29.63 in WNW 8.7 mph 20.0 mph 94 % 0.00 in 0.0 W/m2 SCT
21:39 19.9 °F 18.2 °F 29.63 in West 7.3 mph 18.4 mph 93 % 0.00 in 0.0 W/m2 SCT
21:44 19.8 °F 18.1 °F 29.64 in WNW 12.5 mph 21.9 mph 93 % 0.00 in 0.0 W/m2 SCT
21:49 19.7 °F 18.0 °F 29.64 in SW 5.1 mph 15.0 mph 93 % 0.00 in 0.0 W/m2 SCT
21:54 19.6 °F 17.9 °F 29.64 in WSW 7.2 mph 11.5 mph 93 % 0.00 in 0.0 W/m2 SCT
21:59 19.6 °F 17.9 °F 29.65 in WNW 11.3 mph 13.8 mph 93 % 0.00 in 0.0 W/m2 SCT
22:04 19.5 °F 17.8 °F 29.65 in West 6.1 mph 17.3 mph 93 % 0.00 in 0.0 W/m2 SCT
22:05 19.5 °F 17.8 °F 29.65 in West 5.8 mph 17.3 mph 93 % 0.00 in 0.0 W/m2 SCT
22:10 19.5 °F 17.8 °F 29.65 in West 5.2 mph 11.5 mph 93 % 0.00 in 0.0 W/m2 SCT
22:15 19.4 °F 17.7 °F 29.66 in WNW 13.1 mph 16.1 mph 93 % 0.00 in 0.0 W/m2 SCT
22:20 19.3 °F 17.6 °F 29.66 in WNW 12.0 mph 18.0 mph 93 % 0.00 in 0.0 W/m2 CLR
22:25 19.2 °F 17.5 °F 29.65 in WNW 8.0 mph 21.0 mph 93 % 0.00 in 0.0 W/m2 CLR
22:30 19.1 °F 17.4 °F 29.66 in West 12.2 mph 18.4 mph 93 % 0.00 in 0.0 W/m2 SCT
22:35 19.1 °F 17.4 °F 29.66 in West 8.7 mph 17.3 mph 93 % 0.00 in 0.0 W/m2 SCT
22:40 19.0 °F 17.3 °F 29.65 in WNW 14.9 mph 23.0 mph 93 % 0.00 in 0.0 W/m2 SCT
22:45 18.9 °F 17.2 °F 29.65 in WNW 11.4 mph 18.0 mph 93 % 0.00 in 0.0 W/m2 SCT
22:50 18.9 °F 17.2 °F 29.65 in WSW 15.6 mph 20.0 mph 93 % 0.00 in 0.0 W/m2 SCT
22:55 18.8 °F 17.1 °F 29.66 in NNW 11.2 mph 17.3 mph 93 % 0.00 in 0.0 W/m2 SCT
23:00 18.8 °F 17.1 °F 29.66 in WNW 11.4 mph 15.0 mph 93 % 0.00 in 0.0 W/m2 SCT
23:05 18.8 °F 17.1 °F 29.67 in West 13.4 mph 19.0 mph 93 % 0.00 in 0.0 W/m2 SCT
23:10 18.7 °F 17.0 °F 29.66 in West 13.9 mph 20.7 mph 93 % 0.00 in 0.0 W/m2 SCT
23:15 18.7 °F 17.0 °F 29.67 in WNW 5.4 mph 11.5 mph 93 % 0.00 in 0.0 W/m2 SCT
23:20 18.6 °F 16.9 °F 29.67 in WNW 13.3 mph 19.6 mph 93 % 0.00 in 0.0 W/m2 SCT
23:25 18.6 °F 16.9 °F 29.67 in WSW 6.8 mph 15.0 mph 93 % 0.00 in 0.0 W/m2 SCT
23:30 18.6 °F 16.9 °F 29.67 in WNW 8.3 mph 15.0 mph 93 % 0.00 in 0.0 W/m2 SCT
23:35 18.6 °F 16.9 °F 29.68 in West 6.9 mph 16.0 mph 93 % 0.00 in 0.0 W/m2 SCT
23:40 18.5 °F 16.8 °F 29.68 in WSW 10.1 mph 12.7 mph 93 % 0.00 in 0.0 W/m2 SCT
23:45 18.5 °F 16.8 °F 29.68 in WNW 8.8 mph 13.8 mph 93 % 0.00 in 0.0 W/m2 SCT
23:50 18.5 °F 16.8 °F 29.68 in West 8.3 mph 13.8 mph 93 % 0.00 in 0.0 W/m2 SCT
23:55 18.4 °F 16.7 °F 29.68 in NW 10.0 mph 16.1 mph 93 % 0.00 in 0.0 W/m2 SCT
Air Products Campus Weather
Compliments of Weather Underground - 3.5 mb